AKDT,Max TemperatureF,Mean TemperatureF,Min TemperatureF,Max Dew PointF,MeanDew PointF,Min DewpointF,Max Humidity, Mean Humidity, Min Humidity, Max Sea Level PressureIn, Mean Sea Level PressureIn, Min Sea Level PressureIn, Max VisibilityMiles, Mean VisibilityMiles, Min VisibilityMiles, Max Wind SpeedMPH, Mean Wind SpeedMPH, Max Gust SpeedMPH,PrecipitationIn, CloudCover, Events, WindDirDegrees
2013-4-1,37,27,17,27,19,12,100,81,45,30.16,30.10,29.84,10,6,0,12,1,,0.00,6,Fog-Snow,27
2013-4-2,32,16,1,18,10,0,92,70,48,30.22,30.17,30.11,10,10,10,8,3,,0.00,4,,229
2013-4-3,32,24,15,9,4,-3,63,46,31,30.49,30.37,30.24,10,10,10,17,9,24,0.00,2,,59
2013-4-4,28,16,5,16,-3,-8,59,41,23,30.50,30.32,30.11,10,10,10,20,9,24,0.00,0,,70
2013-4-5,17,11,3,-3,-8,-12,51,41,35,30.09,29.90,29.78,20,12,10,21,12,28,0.00,0,,57
2013-4-6,19,3,-13,0,-9,-18,78,55,33,29.76,29.67,29.63,10,10,10,12,2,,0.00,4,,67
2013-4-7,8,4,-7,3,-1,-10,88,78,58,29.95,29.78,29.67,10,4,1,10,4,,0.01,8,Snow,217
2013-4-8,10,-5,-20,7,-1,-26,86,81,70,29.98,29.70,29.46,10,4,1,8,3,,0.05,7,Snow,212
2013-4-9,10,8,6,7,4,0,87,79,67,29.48,29.28,29.13,10,3,0,15,4,,0.09,7,Fog-Snow,245
2013-4-10,10,2,-9,0,-4,-14,83,66,48,30.00,29.74,29.49,10,9,4,12,8,17,0.00,5,Snow,229
2013-4-11,14,-1,-16,-2,-10,-20,84,68,45,30.28,30.17,30.02,13,10,6,8,3,,0.00,5,,141
2013-4-12,19,5,-9,1,-6,-13,86,68,46,30.39,30.35,30.29,10,9,7,8,3,,0.00,2,,207
2013-4-13,21,5,-11,6,-4,-17,87,64,42,30.51,30.46,30.40,10,10,10,9,3,,0.00,0,,238
2013-4-14,28,14,1,15,6,-5,72,63,51,30.60,30.56,30.53,10,10,7,7,4,,0.00,7,,79
2013-4-15,30,18,6,8,4,1,88,53,32,30.56,30.52,30.47,10,8,7,14,6,,0.00,6,,61
2013-4-16,26,14,1,12,4,-5,78,56,46,30.45,30.34,30.27,15,12,10,10,3,,0.00,6,Snow,14
2013-4-17,28,14,1,9,4,-3,85,55,40,30.40,30.33,30.26,10,8,7,17,4,24,0.00,2,,38
2013-4-18,30,21,12,7,3,-2,56,44,36,30.45,30.41,30.39,10,10,10,18,8,25,0.00,0,,39
2013-4-19,21,13,5,4,2,-2,73,59,46,30.48,30.45,30.43,10,10,10,8,5,,0.00,0,,65
2013-4-20,39,26,12,20,10,3,68,49,33,30.43,30.37,30.31,10,10,10,10,5,,0.00,0,,224
2013-4-21,41,26,10,17,11,5,80,53,29,30.39,30.36,30.34,10,10,10,7,4,,0.00,0,,155
2013-4-22,44,29,14,19,11,7,74,51,25,30.51,30.45,30.40,10,10,10,7,4,,0.00,0,,122
2013-4-23,42,28,15,23,16,10,80,54,36,30.42,30.33,30.20,10,10,10,15,4,,0.00,4,,278
2013-4-24,36,33,25,30,26,20,93,78,52,30.18,30.10,29.99,10,6,1,20,10,25,0.00,8,Snow,260
2013-4-25,33,27,19,15,2,-6,57,34,25,30.12,30.07,30.02,10,10,10,10,6,,0.00,1,,14
2013-4-26,28,19,10,23,13,1,92,66,46,30.01,29.73,29.61,10,8,2,9,3,,0.00,6,Snow,19
2013-4-27,28,22,16,22,5,-7,92,48,24,30.18,29.98,29.70,10,10,10,18,6,26,0.00,3,,46
2013-4-28,35,18,0,17,3,-8,72,49,31,30.21,30.17,30.11,10,10,10,14,3,,0.00,1,,243
2013-4-29,30,24,17,27,21,10,93,78,58,30.27,30.12,30.07,10,6,1,14,5,,0.02,8,Snow,211
2013-4-30,35,30,26,27,26,21,93,86,56,30.10,30.01,29.88,10,3,0,12,2,,0.05,8,Fog-Rain-Snow,151